createdAt,value
2018-12-27T00:00:55.695Z,99.99
2018-12-27T00:01:55.751Z,99.99
2018-12-27T00:02:55.795Z,99.99
2018-12-27T00:03:55.890Z,99.99
2018-12-27T00:04:55.902Z,99.99
2018-12-27T00:05:55.949Z,99.99
2018-12-27T00:06:55.968Z,99.99
2018-12-27T00:07:56.027Z,99.99
2018-12-27T00:08:56.085Z,99.99
2018-12-27T00:09:56.158Z,99.99
2018-12-27T00:10:56.202Z,99.99
2018-12-27T00:11:56.203Z,99.99
2018-12-27T00:12:56.279Z,99.99
2018-12-27T00:13:56.302Z,99.99
2018-12-27T00:14:56.349Z,99.99
2018-12-27T00:15:56.417Z,99.99
2018-12-27T00:16:56.438Z,99.99
2018-12-27T00:17:56.500Z,99.99
2018-12-27T00:18:56.598Z,99.99
2018-12-27T00:19:56.601Z,99.99
2018-12-27T00:20:56.702Z,99.99
2018-12-27T00:21:56.662Z,99.99
2018-12-27T00:22:56.728Z,99.99
2018-12-27T00:23:56.777Z,99.99
2018-12-27T00:24:56.827Z,99.99
2018-12-27T00:25:56.912Z,99.99
2018-12-27T00:26:56.920Z,99.99
2018-12-27T00:27:57.005Z,99.99
2018-12-27T00:28:57.009Z,99.99
2018-12-27T00:29:57.041Z,99.99
2018-12-27T00:30:57.108Z,99.99
2018-12-27T00:31:57.137Z,99.99
2018-12-27T00:33:03.084Z,99.99
2018-12-27T00:33:57.233Z,99.99
2018-12-27T00:34:57.283Z,99.99
2018-12-27T00:35:57.308Z,99.99
2018-12-27T00:36:58.879Z,99.99
2018-12-27T00:37:57.436Z,99.99
2018-12-27T00:38:57.512Z,99.99
2018-12-27T00:39:57.517Z,99.99
2018-12-27T00:40:57.560Z,99.99
2018-12-27T00:41:57.601Z,99.99
2018-12-27T00:42:57.650Z,99.99
2018-12-27T00:43:57.708Z,99.99
2018-12-27T00:44:57.747Z,99.99
2018-12-27T00:45:57.806Z,99.99
2018-12-27T00:46:57.841Z,99.99
2018-12-27T00:47:57.925Z,99.99
2018-12-27T00:48:57.939Z,99.99
2018-12-27T00:49:57.972Z,99.99
2018-12-27T00:50:58.029Z,99.99
2018-12-27T00:51:58.054Z,99.99
2018-12-27T00:52:58.102Z,99.99
2018-12-27T00:53:58.161Z,99.99
2018-12-27T00:54:58.229Z,99.99
2018-12-27T00:55:58.257Z,99.99
2018-12-27T00:56:58.315Z,99.99
2018-12-27T00:57:58.357Z,99.99
2018-12-27T00:58:58.403Z,99.99
2018-12-27T00:59:58.430Z,99.99
2018-12-27T01:00:58.484Z,99.99
2018-12-27T01:01:58.532Z,99.99
2018-12-27T01:02:58.594Z,99.99
2018-12-27T01:03:58.621Z,99.99
2018-12-27T01:04:58.670Z,99.99
2018-12-27T01:05:58.724Z,99.99
2018-12-27T01:06:58.777Z,99.99
2018-12-27T01:07:58.817Z,99.99
2018-12-27T01:08:58.881Z,99.99
2018-12-27T01:09:58.938Z,99.99
2018-12-27T01:10:58.941Z,99.99
2018-12-27T01:11:58.981Z,99.99
2018-12-27T01:12:59.053Z,99.99
2018-12-27T01:13:59.325Z,99.99
2018-12-27T01:14:59.188Z,99.99
2018-12-27T01:15:59.193Z,99.99
2018-12-27T01:16:59.228Z,99.99
2018-12-27T01:17:59.288Z,99.99
2018-12-27T01:18:59.333Z,99.99
2018-12-27T01:19:59.372Z,99.99
2018-12-27T01:20:59.428Z,99.99
2018-12-27T01:21:59.474Z,99.99
2018-12-27T01:22:59.510Z,99.99
2018-12-27T01:23:59.556Z,99.99
2018-12-27T01:24:59.595Z,99.99
2018-12-27T01:25:59.646Z,99.99
2018-12-27T01:26:59.679Z,99.99
2018-12-27T01:27:59.736Z,99.99
2018-12-27T01:28:59.794Z,99.99
2018-12-27T01:29:59.839Z,99.99
2018-12-27T01:30:59.880Z,99.99
2018-12-27T01:31:59.915Z,99.99
2018-12-27T01:32:59.980Z,99.99
2018-12-27T01:34:00.023Z,99.99
2018-12-27T01:35:00.154Z,99.99
2018-12-27T01:36:00.111Z,99.99
2018-12-27T01:37:00.146Z,99.99
2018-12-27T01:38:00.196Z,99.99
2018-12-27T01:39:00.256Z,99.99
2018-12-27T01:40:00.276Z,99.99
2018-12-27T01:41:00.344Z,99.99
2018-12-27T01:42:00.386Z,99.99
2018-12-27T01:43:00.409Z,99.99
2018-12-27T01:44:00.489Z,99.99
2018-12-27T01:45:00.539Z,99.99
2018-12-27T01:46:00.553Z,99.99
2018-12-27T01:47:00.625Z,99.99
2018-12-27T01:48:00.656Z,99.99
2018-12-27T01:49:00.703Z,99.99
2018-12-27T01:50:00.758Z,99.99
2018-12-27T01:51:00.813Z,99.99
2018-12-27T01:52:00.860Z,99.99
2018-12-27T01:53:00.896Z,99.99
2018-12-27T01:54:00.943Z,99.99
2018-12-27T01:55:00.988Z,99.99
2018-12-27T01:56:01.054Z,99.99
2018-12-27T01:57:01.083Z,99.99
2018-12-27T01:58:01.108Z,99.99
2018-12-27T01:59:01.199Z,99.99
2018-12-27T02:00:01.267Z,99.99
2018-12-27T02:01:01.304Z,99.99
2018-12-27T02:02:01.328Z,99.99
2018-12-27T02:03:01.349Z,99.99
2018-12-27T02:04:01.404Z,99.99
2018-12-27T02:05:01.543Z,99.99
2018-12-27T02:06:01.486Z,99.99
2018-12-27T02:07:01.526Z,99.99
2018-12-27T02:08:01.585Z,99.99
2018-12-27T02:09:01.635Z,99.99
2018-12-27T02:10:01.679Z,99.99
2018-12-27T02:11:01.735Z,99.99
2018-12-27T02:12:01.749Z,99.99
2018-12-27T02:13:01.804Z,99.99
2018-12-27T02:14:01.861Z,99.99
2018-12-27T02:15:01.890Z,99.99
2018-12-27T02:16:01.951Z,99.99
2018-12-27T02:17:01.985Z,99.99
2018-12-27T02:18:02.036Z,99.99
2018-12-27T02:19:02.084Z,99.99
2018-12-27T02:20:02.133Z,99.99
2018-12-27T02:21:02.179Z,99.99
2018-12-27T02:22:02.234Z,99.99
2018-12-27T02:23:02.268Z,99.99
2018-12-27T02:24:02.313Z,99.99
2018-12-27T02:25:02.395Z,99.99
2018-12-27T02:26:02.434Z,99.99
2018-12-27T02:27:02.438Z,99.99
2018-12-27T02:28:02.485Z,99.99
2018-12-27T02:29:02.536Z,99.99
2018-12-27T02:30:02.599Z,99.99
2018-12-27T02:31:02.640Z,99.99
2018-12-27T02:32:02.678Z,99.99
2018-12-27T02:33:02.733Z,99.99
2018-12-27T02:34:02.748Z,99.99
2018-12-27T02:35:02.845Z,99.99
2018-12-27T02:36:02.847Z,99.99
2018-12-27T02:37:02.912Z,99.99
2018-12-27T02:38:02.968Z,99.99
2018-12-27T02:39:02.999Z,99.99
2018-12-27T02:40:03.075Z,99.99
2018-12-27T02:41:03.080Z,99.99
2018-12-27T02:42:03.118Z,99.99
2018-12-27T02:43:03.191Z,99.99
2018-12-27T02:44:03.227Z,99.99
2018-12-27T02:45:03.272Z,99.99
2018-12-27T02:46:03.295Z,99.99
2018-12-27T02:47:03.352Z,99.99
2018-12-27T02:48:03.418Z,99.99
2018-12-27T02:49:03.423Z,99.99
2018-12-27T02:50:03.487Z,99.99
2018-12-27T02:51:03.539Z,99.99
2018-12-27T02:52:03.575Z,99.99
2018-12-27T02:53:03.616Z,99.99
2018-12-27T02:54:03.670Z,99.99
2018-12-27T02:55:03.694Z,99.99
2018-12-27T02:56:03.747Z,99.99
2018-12-27T02:57:03.819Z,99.99
2018-12-27T02:58:03.879Z,99.99
2018-12-27T02:59:03.900Z,99.99
2018-12-27T03:00:03.968Z,99.99
2018-12-27T03:01:04.060Z,99.99
2018-12-27T03:02:04.039Z,99.99
2018-12-27T03:03:04.083Z,99.99
2018-12-27T03:04:04.149Z,99.99
2018-12-27T03:05:04.179Z,99.99
2018-12-27T03:06:04.223Z,99.99
2018-12-27T03:07:04.258Z,99.99
2018-12-27T03:08:04.294Z,99.99
2018-12-27T03:09:04.364Z,99.99
2018-12-27T03:10:04.424Z,99.99
2018-12-27T03:11:04.454Z,99.99
2018-12-27T03:12:04.511Z,99.99
2018-12-27T03:13:04.544Z,99.99
2018-12-27T03:14:04.629Z,99.99
2018-12-27T03:15:04.637Z,99.99
2018-12-27T03:16:04.695Z,99.99
2018-12-27T03:17:04.737Z,99.99
2018-12-27T03:18:04.796Z,99.99
2018-12-27T03:19:04.817Z,99.99
2018-12-27T03:20:04.855Z,99.99
2018-12-27T03:21:04.908Z,99.99
2018-12-27T03:22:04.975Z,99.99
2018-12-27T03:23:04.985Z,99.99
2018-12-27T03:24:05.064Z,99.99
2018-12-27T03:25:05.091Z,99.99
2018-12-27T03:26:05.193Z,99.99
2018-12-27T03:27:05.189Z,99.99
2018-12-27T03:28:05.292Z,99.99
2018-12-27T03:29:05.278Z,99.99
2018-12-27T03:30:05.322Z,99.99
2018-12-27T03:31:05.417Z,99.99
2018-12-27T03:32:05.429Z,99.99
2018-12-27T03:33:05.537Z,99.99
2018-12-27T03:34:05.498Z,99.99
2018-12-27T03:35:05.564Z,99.99
2018-12-27T03:36:05.606Z,99.99
2018-12-27T03:37:05.647Z,99.99
2018-12-27T03:38:05.698Z,99.99
2018-12-27T03:39:05.759Z,99.99
2018-12-27T03:40:05.781Z,99.99
2018-12-27T03:41:05.824Z,99.99
2018-12-27T03:42:05.916Z,99.99
2018-12-27T03:43:05.923Z,99.99
2018-12-27T03:44:05.954Z,99.99
2018-12-27T03:45:06.031Z,99.99
2018-12-27T03:46:06.110Z,99.99
2018-12-27T03:47:06.117Z,99.99
2018-12-27T03:48:06.194Z,99.99
2018-12-27T03:49:06.203Z,99.99
2018-12-27T03:50:06.246Z,99.99
2018-12-27T03:51:06.287Z,99.99
2018-12-27T03:52:06.362Z,99.99
2018-12-27T03:53:06.379Z,99.99
2018-12-27T03:54:06.698Z,99.99
2018-12-27T03:55:06.492Z,99.99
2018-12-27T03:56:06.533Z,99.99
2018-12-27T03:57:06.559Z,99.99
2018-12-27T03:58:06.630Z,99.99
2018-12-27T03:59:06.675Z,99.99
2018-12-27T04:00:06.689Z,99.99
2018-12-27T04:01:06.782Z,99.99
2018-12-27T04:02:06.850Z,99.99
2018-12-27T04:03:06.975Z,99.99
2018-12-27T04:04:06.930Z,99.99
2018-12-27T04:05:06.934Z,99.99
2018-12-27T04:06:06.998Z,99.99
2018-12-27T04:07:07.018Z,99.99
2018-12-27T04:08:07.076Z,99.99
2018-12-27T04:09:07.131Z,99.99
2018-12-27T04:10:07.160Z,99.99
2018-12-27T04:11:07.218Z,99.99
2018-12-27T04:12:07.269Z,99.99
2018-12-27T04:13:07.310Z,99.99
2018-12-27T04:14:07.373Z,99.99
2018-12-27T04:15:07.395Z,99.99
2018-12-27T04:16:07.443Z,99.99
2018-12-27T04:17:07.496Z,99.99
2018-12-27T04:18:07.537Z,99.99
2018-12-27T04:19:07.576Z,99.99
2018-12-27T04:20:07.631Z,99.99
2018-12-27T04:21:07.658Z,99.99
2018-12-27T04:22:07.763Z,99.99
2018-12-27T04:23:07.821Z,99.99
2018-12-27T04:24:07.851Z,99.99
2018-12-27T04:25:07.892Z,99.99
2018-12-27T04:26:07.914Z,99.99
2018-12-27T04:27:07.953Z,99.99
2018-12-27T04:28:07.983Z,99.99
2018-12-27T04:29:08.082Z,99.99
2018-12-27T04:30:08.091Z,99.99
2018-12-27T04:31:08.130Z,99.99
2018-12-27T04:32:08.195Z,99.99
2018-12-27T04:33:08.221Z,99.99
2018-12-27T04:34:09.697Z,99.99
2018-12-27T04:35:08.367Z,99.99
2018-12-27T04:36:08.353Z,99.99
2018-12-27T04:37:08.417Z,99.99
2018-12-27T04:38:08.442Z,99.99
2018-12-27T04:39:08.501Z,99.99
2018-12-27T04:40:08.537Z,99.99
2018-12-27T04:41:08.596Z,99.99
2018-12-27T04:42:08.636Z,99.99
2018-12-27T04:43:08.690Z,99.99
2018-12-27T04:44:08.742Z,99.99
2018-12-27T04:45:08.810Z,99.99
2018-12-27T04:46:08.816Z,99.99
2018-12-27T04:47:08.876Z,99.99
2018-12-27T04:48:08.910Z,99.99
2018-12-27T04:49:08.937Z,99.99
2018-12-27T04:50:09.017Z,99.99
2018-12-27T04:51:09.067Z,99.99
2018-12-27T04:52:09.102Z,99.99
2018-12-27T04:53:09.138Z,99.99
2018-12-27T04:54:09.199Z,99.99
2018-12-27T04:55:09.245Z,99.99
2018-12-27T04:56:09.272Z,99.99
2018-12-27T04:57:09.327Z,99.99
2018-12-27T04:58:09.398Z,99.99
2018-12-27T04:59:09.430Z,99.99
2018-12-27T05:00:09.479Z,99.99
2018-12-27T05:01:09.508Z,99.99
2018-12-27T05:02:09.567Z,99.99
2018-12-27T05:03:09.630Z,99.99
2018-12-27T05:04:17.823Z,99.99
2018-12-27T05:05:09.704Z,99.99
2018-12-27T05:06:09.745Z,99.99
2018-12-27T05:07:09.762Z,99.99
2018-12-27T05:08:09.818Z,99.99
2018-12-27T05:09:09.879Z,99.99
2018-12-27T05:10:09.959Z,99.99
2018-12-27T05:11:10.021Z,99.99
2018-12-27T05:12:10.035Z,99.99
2018-12-27T05:13:10.101Z,99.99
2018-12-27T05:14:10.115Z,99.99
2018-12-27T05:15:10.150Z,99.99
2018-12-27T05:16:10.205Z,99.99
2018-12-27T05:17:10.238Z,99.99
2018-12-27T05:18:10.272Z,99.99
2018-12-27T05:19:10.324Z,99.99
2018-12-27T05:20:10.379Z,99.99
2018-12-27T05:21:10.438Z,99.99
2018-12-27T05:22:10.478Z,99.99
2018-12-27T05:23:10.553Z,99.99
2018-12-27T05:24:10.583Z,99.99
2018-12-27T05:25:10.605Z,99.99
2018-12-27T05:26:10.641Z,99.99
2018-12-27T05:27:10.697Z,99.99
2018-12-27T05:28:10.735Z,99.99
2018-12-27T05:29:10.794Z,99.99
2018-12-27T05:30:10.835Z,99.99
2018-12-27T05:31:10.899Z,99.99
2018-12-27T05:32:10.947Z,99.99
2018-12-27T05:33:10.970Z,99.99
2018-12-27T05:34:11.031Z,99.99
2018-12-27T05:35:11.045Z,99.99
2018-12-27T05:36:11.155Z,99.99
2018-12-27T05:37:11.137Z,99.99
2018-12-27T05:38:11.207Z,99.99
2018-12-27T05:39:11.254Z,99.99
2018-12-27T05:40:11.300Z,99.99
2018-12-27T05:41:11.335Z,99.99
2018-12-27T05:42:11.382Z,99.99
2018-12-27T05:43:11.410Z,99.99
2018-12-27T05:44:11.478Z,99.99
2018-12-27T05:45:11.515Z,99.99
2018-12-27T05:46:11.577Z,99.99
2018-12-27T05:47:11.615Z,99.99
2018-12-27T05:48:11.656Z,99.99
2018-12-27T05:49:11.704Z,99.99
2018-12-27T05:50:11.761Z,99.99
2018-12-27T05:51:11.835Z,99.99
2018-12-27T05:52:11.843Z,99.99
2018-12-27T05:53:11.892Z,99.99
2018-12-27T05:54:11.924Z,99.99
2018-12-27T05:55:11.988Z,99.99
2018-12-27T05:56:12.034Z,99.99
2018-12-27T05:57:12.065Z,99.99
2018-12-27T05:58:12.116Z,99.99
2018-12-27T05:59:12.191Z,99.99
2018-12-27T06:00:12.201Z,99.99
2018-12-27T06:01:12.251Z,99.99
2018-12-27T06:02:12.305Z,99.99
2018-12-27T06:03:12.333Z,99.99
2018-12-27T06:04:12.389Z,99.99
2018-12-27T06:05:12.436Z,99.99
2018-12-27T06:06:12.495Z,99.99
2018-12-27T06:07:12.539Z,99.99
2018-12-27T06:08:12.571Z,99.99
2018-12-27T06:09:12.631Z,99.99
2018-12-27T06:10:12.673Z,99.99
2018-12-27T06:11:12.768Z,99.99
2018-12-27T06:12:12.745Z,99.99
2018-12-27T06:13:12.793Z,99.99
2018-12-27T06:14:12.848Z,99.99
2018-12-27T06:15:12.888Z,99.99
2018-12-27T06:16:12.976Z,99.99
2018-12-27T06:17:13.014Z,99.99
2018-12-27T06:18:13.024Z,99.99
2018-12-27T06:19:13.066Z,99.99
2018-12-27T06:20:13.104Z,99.99
2018-12-27T06:21:13.176Z,99.99
2018-12-27T06:22:13.212Z,99.99
2018-12-27T06:23:13.251Z,99.99
2018-12-27T06:24:13.313Z,99.99
2018-12-27T06:25:13.370Z,99.99
2018-12-27T06:26:13.633Z,99.99
2018-12-27T06:27:13.447Z,99.99
2018-12-27T06:28:13.497Z,99.99
2018-12-27T06:29:13.554Z,99.99
2018-12-27T06:30:13.588Z,99.99
2018-12-27T06:31:13.618Z,99.99
2018-12-27T06:32:13.690Z,99.99
2018-12-27T06:33:13.717Z,99.99
2018-12-27T06:34:13.754Z,99.99
2018-12-27T06:35:13.848Z,99.99
2018-12-27T06:36:13.856Z,99.99
2018-12-27T06:37:13.904Z,99.99
2018-12-27T06:38:13.936Z,99.99
2018-12-27T06:39:14.040Z,99.99
2018-12-27T06:40:14.038Z,99.99
2018-12-27T06:41:14.081Z,99.99
2018-12-27T06:42:14.156Z,99.99
2018-12-27T06:43:14.197Z,99.99
2018-12-27T06:44:14.242Z,99.99
2018-12-27T06:45:14.268Z,99.99
2018-12-27T06:46:14.300Z,99.99
2018-12-27T06:47:14.374Z,99.99
2018-12-27T06:48:14.412Z,99.99
2018-12-27T06:49:14.460Z,99.99
2018-12-27T06:50:14.505Z,99.99
2018-12-27T06:51:14.536Z,99.99
2018-12-27T06:52:14.586Z,99.99
2018-12-27T06:53:14.632Z,99.99
2018-12-27T06:54:14.681Z,99.99
2018-12-27T06:55:14.783Z,99.99
2018-12-27T06:56:14.810Z,99.99
2018-12-27T06:57:14.821Z,99.99
2018-12-27T06:58:14.904Z,99.99
2018-12-27T06:59:14.941Z,99.99
2018-12-27T07:00:14.938Z,99.99
2018-12-27T07:01:15.023Z,99.99
2018-12-27T07:02:15.034Z,99.99
2018-12-27T07:03:15.076Z,99.99
2018-12-27T07:04:15.136Z,99.99
2018-12-27T07:05:15.596Z,99.99
2018-12-27T07:06:15.201Z,99.99
2018-12-27T07:07:15.572Z,99.99
2018-12-27T07:08:15.313Z,99.99
2018-12-27T07:09:15.358Z,99.99
2018-12-27T07:10:15.415Z,99.99
2018-12-27T07:11:15.450Z,99.99
2018-12-27T07:12:15.503Z,99.99
2018-12-27T07:13:15.537Z,99.99
2018-12-27T07:14:15.598Z,99.99
2018-12-27T07:15:15.645Z,99.99
2018-12-27T07:16:15.688Z,99.99
2018-12-27T07:17:15.734Z,99.99
2018-12-27T07:18:16.058Z,99.99
2018-12-27T07:19:15.805Z,99.99
2018-12-27T07:20:15.853Z,99.99
2018-12-27T07:21:15.899Z,99.99
2018-12-27T07:22:15.960Z,99.99
2018-12-27T07:23:16.000Z,99.99
2018-12-27T07:24:16.080Z,99.99
2018-12-27T07:25:16.072Z,99.99
2018-12-27T07:26:16.115Z,99.99
2018-12-27T07:27:16.165Z,99.99
2018-12-27T07:28:16.251Z,99.99
2018-12-27T07:29:16.270Z,99.99
2018-12-27T07:30:16.307Z,99.99
2018-12-27T07:31:16.362Z,99.99
2018-12-27T07:32:16.401Z,99.99
2018-12-27T07:33:16.448Z,99.99
2018-12-27T07:34:16.490Z,99.99
2018-12-27T07:35:16.545Z,99.99
2018-12-27T07:36:16.574Z,99.99
2018-12-27T07:37:16.632Z,99.99
2018-12-27T07:38:16.682Z,99.99
2018-12-27T07:39:16.718Z,99.99
2018-12-27T07:40:16.783Z,99.99
2018-12-27T07:41:16.811Z,99.99
2018-12-27T07:42:16.888Z,99.99
2018-12-27T07:43:16.939Z,99.99
2018-12-27T07:44:16.960Z,99.99
2018-12-27T07:45:17.035Z,99.99
2018-12-27T07:46:17.032Z,99.99
2018-12-27T07:47:17.100Z,99.99
2018-12-27T07:48:17.124Z,99.99
2018-12-27T07:49:17.215Z,99.99
2018-12-27T07:50:17.224Z,99.99
2018-12-27T07:51:17.279Z,99.99
2018-12-27T07:52:17.316Z,99.99
2018-12-27T07:53:17.346Z,99.99
2018-12-27T07:54:17.402Z,99.99
2018-12-27T07:55:17.467Z,99.99
2018-12-27T07:56:17.512Z,99.99
2018-12-27T07:57:17.538Z,99.99
2018-12-27T07:58:17.590Z,99.99
2018-12-27T07:59:17.620Z,99.99
2018-12-27T08:00:17.660Z,99.99
2018-12-27T08:01:17.723Z,99.99
2018-12-27T08:02:17.758Z,99.99
2018-12-27T08:03:17.801Z,99.99
2018-12-27T08:04:17.862Z,99.99
2018-12-27T08:05:17.898Z,99.99
2018-12-27T08:06:17.938Z,99.99
2018-12-27T08:07:17.983Z,99.99
2018-12-27T08:08:18.021Z,99.99
2018-12-27T08:09:18.079Z,99.99
2018-12-27T08:10:18.125Z,99.99
2018-12-27T08:11:18.180Z,99.99
2018-12-27T08:12:18.223Z,99.99
2018-12-27T08:13:18.247Z,99.99
2018-12-27T08:14:18.362Z,99.99
2018-12-27T08:15:18.332Z,99.99
2018-12-27T08:16:18.409Z,99.99
2018-12-27T08:17:18.456Z,99.99
2018-12-27T08:18:18.473Z,99.99
2018-12-27T08:19:18.517Z,99.99
2018-12-27T08:20:18.557Z,99.99
2018-12-27T08:21:18.630Z,99.99
2018-12-27T08:22:18.674Z,99.99
2018-12-27T08:23:18.721Z,99.99
2018-12-27T08:24:18.743Z,99.99
2018-12-27T08:25:18.786Z,99.99
2018-12-27T08:26:18.865Z,99.99
2018-12-27T08:27:18.900Z,99.99
2018-12-27T08:28:18.945Z,99.99
2018-12-27T08:29:18.975Z,99.99
2018-12-27T08:30:19.035Z,99.99
2018-12-27T08:31:19.072Z,99.99
2018-12-27T08:32:19.155Z,99.99
2018-12-27T08:33:19.214Z,99.99
2018-12-27T08:34:19.227Z,99.99
2018-12-27T08:35:19.277Z,99.99
2018-12-27T08:36:19.362Z,99.99
2018-12-27T08:37:19.356Z,99.99
2018-12-27T08:38:19.399Z,99.99
2018-12-27T08:39:19.432Z,99.99
2018-12-27T08:40:19.481Z,99.99
2018-12-27T08:41:19.530Z,99.99
2018-12-27T08:42:19.592Z,99.99
2018-12-27T08:43:19.865Z,99.99
2018-12-27T08:44:19.661Z,99.99
2018-12-27T08:45:19.728Z,99.99
2018-12-27T08:46:19.756Z,99.99
2018-12-27T08:47:19.795Z,99.99
2018-12-27T08:48:19.835Z,99.99
2018-12-27T08:49:19.903Z,99.99
2018-12-27T08:50:19.957Z,99.99
2018-12-27T08:51:19.992Z,99.99
2018-12-27T08:52:20.038Z,99.99
2018-12-27T08:53:20.056Z,99.99
2018-12-27T08:54:20.131Z,99.99
2018-12-27T08:55:20.170Z,99.99
2018-12-27T08:56:20.190Z,99.99
2018-12-27T08:57:20.247Z,99.99
2018-12-27T08:58:20.309Z,99.99
2018-12-27T08:59:20.350Z,99.99
2018-12-27T09:00:20.390Z,99.99
2018-12-27T09:01:20.459Z,99.99
2018-12-27T09:02:20.490Z,99.99
2018-12-27T09:03:20.550Z,99.99
2018-12-27T09:04:20.900Z,99.99
2018-12-27T09:05:20.625Z,99.99
2018-12-27T09:06:20.684Z,99.99
2018-12-27T09:07:20.725Z,99.99
2018-12-27T09:08:20.760Z,99.99
2018-12-27T09:09:20.804Z,99.99
2018-12-27T09:10:20.854Z,99.99
2018-12-27T09:11:20.913Z,99.99
2018-12-27T09:12:20.949Z,99.99
2018-12-27T09:13:21.006Z,99.99
2018-12-27T09:14:21.045Z,99.99
2018-12-27T09:15:21.121Z,99.99
2018-12-27T09:16:21.133Z,99.99
2018-12-27T09:17:21.172Z,99.99
2018-12-27T09:18:22.585Z,99.99
2018-12-27T09:19:21.263Z,99.99
2018-12-27T09:20:21.324Z,99.99
2018-12-27T09:21:21.376Z,99.99
2018-12-27T09:22:21.403Z,99.99
2018-12-27T09:23:21.499Z,99.99
2018-12-27T09:24:21.481Z,99.99
2018-12-27T09:25:21.560Z,99.99
2018-12-27T09:26:21.593Z,99.99
2018-12-27T09:27:21.637Z,99.99
2018-12-27T09:28:21.675Z,99.99
2018-12-27T09:29:21.740Z,99.99
2018-12-27T09:30:21.793Z,99.99
2018-12-27T09:31:21.825Z,99.99
2018-12-27T09:32:21.982Z,99.99
2018-12-27T09:33:21.935Z,99.99
2018-12-27T09:34:21.958Z,99.99
2018-12-27T09:35:26.261Z,99.99
2018-12-27T09:36:22.058Z,99.99
2018-12-27T09:37:22.114Z,99.99
2018-12-27T09:38:22.146Z,99.99
2018-12-27T09:39:22.214Z,99.99
2018-12-27T09:40:22.247Z,99.99
2018-12-27T09:41:22.582Z,99.99
2018-12-27T09:42:22.383Z,99.99
2018-12-27T09:43:22.427Z,99.99
2018-12-27T09:44:22.433Z,99.99
2018-12-27T09:45:22.465Z,99.99
2018-12-27T09:46:22.558Z,99.99
2018-12-27T09:47:22.587Z,99.99
2018-12-27T09:48:22.619Z,99.99
2018-12-27T09:49:22.689Z,99.99
2018-12-27T09:50:22.730Z,99.99
2018-12-27T09:51:23.084Z,99.99
2018-12-27T09:52:22.835Z,99.99
2018-12-27T09:53:22.859Z,99.99
2018-12-27T09:54:22.906Z,99.99
2018-12-27T09:55:22.974Z,99.99
2018-12-27T09:56:23.017Z,99.99
2018-12-27T09:57:23.043Z,99.99
2018-12-27T09:58:23.107Z,99.99
2018-12-27T09:59:23.129Z,99.99
2018-12-27T10:00:23.212Z,99.99
2018-12-27T10:01:23.254Z,99.99
2018-12-27T10:02:23.547Z,99.99
2018-12-27T10:03:23.318Z,99.99
2018-12-27T10:04:23.384Z,99.99
2018-12-27T10:05:23.431Z,99.99
2018-12-27T10:06:23.499Z,99.99
2018-12-27T10:07:23.545Z,99.99
2018-12-27T10:08:23.594Z,99.99
2018-12-27T10:09:23.639Z,99.99
2018-12-27T10:10:23.699Z,99.99
2018-12-27T10:11:23.757Z,99.99
2018-12-27T10:12:23.820Z,99.99
2018-12-27T10:13:23.867Z,99.99
2018-12-27T10:14:23.862Z,99.99
2018-12-27T10:15:23.964Z,99.99
2018-12-27T10:16:23.990Z,99.99
2018-12-27T10:17:24.020Z,99.99
2018-12-27T10:18:24.061Z,99.99
2018-12-27T10:19:24.144Z,99.99
2018-12-27T10:20:24.163Z,99.99
2018-12-27T10:21:24.265Z,99.99
2018-12-27T10:22:24.266Z,99.99
2018-12-27T10:23:24.320Z,99.99
2018-12-27T10:24:24.358Z,99.99
2018-12-27T10:25:24.398Z,99.99
2018-12-27T10:26:24.474Z,99.99
2018-12-27T10:27:24.520Z,99.99
2018-12-27T10:28:24.558Z,99.99
2018-12-27T10:29:24.664Z,99.99
2018-12-27T10:30:24.652Z,99.99
2018-12-27T10:31:24.711Z,99.99
2018-12-27T10:32:24.753Z,99.99
2018-12-27T10:33:24.856Z,99.99
2018-12-27T10:34:24.859Z,95.53
2018-12-27T10:35:24.913Z,92.51
2018-12-27T10:36:24.957Z,93.34
2018-12-27T10:37:24.988Z,93.24
2018-12-27T10:38:25.060Z,94.60
2018-12-27T10:39:25.115Z,95.04
2018-12-27T10:40:25.162Z,95.14
2018-12-27T10:41:25.203Z,92.51
2018-12-27T10:42:25.256Z,89.29
2018-12-27T10:43:25.301Z,85.58
2018-12-27T10:44:25.350Z,85.88
2018-12-27T10:45:25.429Z,87.68
2018-12-27T10:46:25.547Z,87.34
2018-12-27T10:47:25.521Z,86.11
2018-12-27T10:48:25.573Z,83.70
2018-12-27T10:49:25.662Z,80.02
2018-12-27T10:50:25.663Z,78.03
2018-12-27T10:51:25.712Z,79.57
2018-12-27T10:52:25.789Z,82.01
2018-12-27T10:53:25.840Z,82.86
2018-12-27T10:54:25.894Z,86.18
2018-12-27T10:55:25.926Z,87.99
2018-12-27T10:56:25.993Z,90.23
2018-12-27T10:57:26.036Z,91.69
2018-12-27T10:58:26.112Z,91.01
2018-12-27T10:59:26.133Z,91.45
2018-12-27T11:00:26.213Z,93.05
2018-12-27T11:01:26.265Z,94.66
2018-12-27T11:02:26.323Z,96.60
2018-12-27T11:03:30.438Z,96.41
2018-12-27T11:04:26.430Z,95.77
2018-12-27T11:05:26.475Z,92.71
2018-12-27T11:06:26.519Z,89.14
2018-12-27T11:07:26.587Z,87.39
2018-12-27T11:08:26.634Z,86.46
2018-12-27T11:09:26.725Z,83.68
2018-12-27T11:10:26.718Z,84.07
2018-12-27T11:11:26.780Z,83.04
2018-12-27T11:12:26.880Z,84.07
2018-12-27T11:13:26.923Z,84.17
2018-12-27T11:14:26.933Z,84.25
2018-12-27T11:15:27.005Z,81.38
2018-12-27T11:16:27.048Z,83.82
2018-12-27T11:17:27.102Z,83.68
2018-12-27T11:18:28.494Z,85.29
2018-12-27T11:19:27.204Z,85.49
2018-12-27T11:20:27.318Z,85.19
2018-12-27T11:21:27.337Z,83.23
2018-12-27T11:22:27.384Z,83.14
2018-12-27T11:23:27.433Z,83.39
2018-12-27T11:24:27.465Z,84.17
2018-12-27T11:25:27.550Z,85.92
2018-12-27T11:26:27.635Z,85.29
2018-12-27T11:27:27.632Z,85.14
2018-12-27T11:28:27.694Z,84.07
2018-12-27T11:29:27.752Z,84.22
2018-12-27T11:30:27.794Z,85.78
2018-12-27T11:31:27.868Z,85.58
2018-12-27T11:32:27.908Z,86.46
2018-12-27T11:33:27.966Z,85.68
2018-12-27T11:34:28.030Z,86.77
2018-12-27T11:35:28.077Z,88.09
2018-12-27T11:36:28.111Z,89.21
2018-12-27T11:37:28.200Z,90.37
2018-12-27T11:38:28.255Z,90.37
2018-12-27T11:39:28.307Z,90.14
2018-12-27T11:40:28.359Z,89.93
2018-12-27T11:41:28.402Z,87.93
2018-12-27T11:42:28.431Z,85.47
2018-12-27T11:43:28.507Z,82.34
2018-12-27T11:44:28.553Z,81.21
2018-12-27T11:45:28.617Z,80.19
2018-12-27T11:46:28.639Z,80.10
2018-12-27T11:47:28.717Z,80.68
2018-12-27T11:48:28.778Z,80.49
2018-12-27T11:49:28.815Z,79.80
2018-12-27T11:50:28.877Z,81.28
2018-12-27T11:51:28.935Z,83.54
2018-12-27T11:52:28.970Z,84.57
2018-12-27T11:53:29.039Z,87.06
2018-12-27T11:54:29.095Z,88.09
2018-12-27T11:55:29.145Z,87.89
2018-12-27T11:56:29.240Z,88.18
2018-12-27T11:57:29.272Z,88.86
2018-12-27T11:58:29.319Z,88.18
2018-12-27T11:59:29.366Z,88.14
2018-12-27T12:00:29.424Z,88.82
2018-12-27T12:01:29.492Z,89.55
2018-12-27T12:02:31.264Z,90.81
2018-12-27T12:03:29.561Z,91.78
2018-12-27T12:04:29.646Z,91.88
2018-12-27T12:05:29.697Z,92.66
2018-12-27T12:06:29.730Z,91.59
2018-12-27T12:07:29.808Z,90.86
2018-12-27T12:08:29.849Z,90.03
2018-12-27T12:09:29.895Z,88.60
2018-12-27T12:10:29.988Z,84.74
2018-12-27T12:11:29.998Z,81.85
2018-12-27T12:12:30.075Z,80.49
2018-12-27T12:13:30.131Z,80.68
2018-12-27T12:14:30.160Z,81.46
2018-12-27T12:15:30.208Z,80.68
2018-12-27T12:16:30.268Z,81.52
2018-12-27T12:17:30.337Z,82.45
2018-12-27T12:18:30.391Z,83.87
2018-12-27T12:19:30.460Z,84.61
2018-12-27T12:20:30.538Z,84.38
2018-12-27T12:21:30.537Z,85.93
2018-12-27T12:22:30.583Z,86.91
2018-12-27T12:23:30.650Z,86.71
2018-12-27T12:24:30.701Z,87.45
2018-12-27T12:25:30.763Z,88.17
2018-12-27T12:26:30.809Z,87.45
2018-12-27T12:27:30.904Z,87.64
2018-12-27T12:28:30.904Z,87.10
2018-12-27T12:29:30.979Z,86.17
2018-12-27T12:30:31.005Z,85.93
2018-12-27T12:31:31.123Z,87.49
2018-12-27T12:32:31.118Z,87.01
2018-12-27T12:33:31.181Z,86.18
2018-12-27T12:34:31.229Z,88.42
2018-12-27T12:35:31.301Z,87.84
2018-12-27T12:36:31.335Z,89.10
2018-12-27T12:37:31.401Z,88.81
2018-12-27T12:38:31.450Z,88.13
2018-12-27T12:39:31.514Z,89.00
2018-12-27T12:40:31.571Z,88.48
2018-12-27T12:41:31.618Z,89.06
2018-12-27T12:42:33.173Z,88.71
2018-12-27T12:43:31.748Z,88.37
2018-12-27T12:44:31.759Z,86.85
2018-12-27T12:45:31.823Z,86.07
2018-12-27T12:46:31.863Z,85.58
2018-12-27T12:47:31.928Z,85.68
2018-12-27T12:48:31.983Z,85.68
2018-12-27T12:49:32.028Z,85.43
2018-12-27T12:50:32.070Z,85.53
2018-12-27T12:51:32.132Z,84.46
2018-12-27T12:52:32.172Z,83.73
2018-12-27T12:53:32.228Z,84.61